createdAt,value
2018-11-20T00:01:08.815Z,101959.86
2018-11-20T00:03:57.180Z,101953.03
2018-11-20T00:06:36.612Z,101947.60
2018-11-20T00:09:27.783Z,101944.12
2018-11-20T00:12:23.161Z,101930.64
2018-11-20T00:15:11.285Z,101933.66
2018-11-20T00:18:13.709Z,101929.50
2018-11-20T00:21:10.566Z,101926.67
2018-11-20T00:23:58.898Z,101936.62
2018-11-20T00:26:47.457Z,101928.47
2018-11-20T00:29:47.414Z,101932.63
2018-11-20T00:32:42.196Z,101930.30
2018-11-20T00:35:50.379Z,101923.14
2018-11-20T00:38:40.163Z,101911.33
2018-11-20T00:41:39.332Z,101918.16
2018-11-20T00:44:27.821Z,101914.50
2018-11-20T00:47:16.552Z,101905.53
2018-11-20T00:50:18.866Z,101897.20
2018-11-20T00:53:07.440Z,101908.19
2018-11-20T00:56:39.082Z,101907.21
2018-11-20T00:59:27.346Z,101899.06
2018-11-20T01:02:26.105Z,101899.41
2018-11-20T01:05:24.296Z,101892.88
2018-11-20T01:08:29.044Z,101886.40
2018-11-20T01:11:19.090Z,101891.55
2018-11-20T01:14:17.711Z,101881.08
2018-11-20T01:17:13.855Z,101884.59
2018-11-20T01:20:07.699Z,101872.09
2018-11-20T01:22:48.372Z,101866.77
2018-11-20T01:25:47.661Z,101869.78
2018-11-20T01:28:35.719Z,101866.63
2018-11-20T01:31:28.902Z,101861.79
2018-11-20T01:34:36.715Z,101861.28
2018-11-20T01:37:29.704Z,101857.45
2018-11-20T01:40:28.733Z,101851.82
2018-11-20T01:43:16.085Z,101846.33
2018-11-20T01:46:16.739Z,101845.64
2018-11-20T01:49:08.383Z,101844.66
2018-11-20T01:51:58.025Z,101835.16
2018-11-20T01:54:46.339Z,101832.84
2018-11-20T01:57:48.132Z,101832.50
2018-11-20T02:00:36.079Z,101824.51
2018-11-20T02:03:26.518Z,101814.37
2018-11-20T02:06:28.321Z,101814.71
2018-11-20T02:09:25.456Z,101815.19
2018-11-20T02:12:24.244Z,101812.53
2018-11-20T02:15:12.912Z,101798.56
2018-11-20T02:18:09.352Z,101799.21
2018-11-20T02:21:09.474Z,101800.55
2018-11-20T02:24:05.767Z,101796.55
2018-11-20T02:27:04.857Z,101799.55
2018-11-20T02:29:54.057Z,101788.08
2018-11-20T02:32:42.404Z,101778.76
2018-11-20T02:35:34.514Z,101777.42
2018-11-20T02:38:22.817Z,101780.43
2018-11-20T02:41:11.038Z,101777.26
2018-11-20T02:44:01.074Z,101768.45
2018-11-20T02:46:42.026Z,101764.28
2018-11-20T02:49:46.735Z,101773.77
2018-11-20T02:52:45.436Z,101768.10
2018-11-20T02:55:49.606Z,101750.45
2018-11-20T02:58:48.095Z,101755.95
2018-11-20T03:01:44.199Z,101750.79
2018-11-20T03:04:46.585Z,101743.95
2018-11-20T03:07:35.382Z,101742.46
2018-11-20T03:10:24.662Z,101738.97
2018-11-20T03:13:33.381Z,101734.46
2018-11-20T03:16:15.998Z,101728.49
2018-11-20T03:18:56.535Z,101727.16
2018-11-20T03:21:44.281Z,101727.16
2018-11-20T03:24:42.544Z,101726.30
2018-11-20T03:27:30.080Z,101713.32
2018-11-20T03:31:00.959Z,101711.81
2018-11-20T03:33:41.660Z,101714.16
2018-11-20T03:36:34.248Z,101699.34
2018-11-20T03:39:25.306Z,101700.86
2018-11-20T03:42:17.695Z,101691.67
2018-11-20T03:45:17.117Z,101691.53
2018-11-20T03:48:06.187Z,101677.19
2018-11-20T03:51:01.850Z,101678.88
2018-11-20T03:54:00.324Z,101670.72
2018-11-20T03:56:56.388Z,101669.91
2018-11-20T03:59:48.826Z,101668.55
2018-11-20T04:02:42.265Z,101665.23
2018-11-20T04:05:30.764Z,101667.08
2018-11-20T04:08:30.430Z,101664.75
2018-11-20T04:11:19.692Z,101666.91
2018-11-20T04:14:16.678Z,101671.73
2018-11-20T04:17:05.171Z,101671.75
2018-11-20T04:19:51.941Z,101674.73
2018-11-20T04:22:56.630Z,101671.09
2018-11-20T04:26:00.275Z,101672.09
2018-11-20T04:28:59.317Z,101673.27
2018-11-20T04:32:13.619Z,101680.09
2018-11-20T04:35:17.705Z,101680.09
2018-11-20T04:38:31.839Z,101690.06
2018-11-20T04:41:11.783Z,101684.58
2018-11-20T04:44:07.746Z,101694.41
2018-11-20T04:46:56.343Z,101704.20
2018-11-20T04:49:52.055Z,101711.70
2018-11-20T04:52:34.050Z,101705.05
2018-11-20T04:55:23.773Z,101696.53
2018-11-20T04:58:14.613Z,101694.37
2018-11-20T05:01:21.584Z,101703.69
2018-11-20T05:04:15.462Z,101691.20
2018-11-20T05:07:13.845Z,101687.39
2018-11-20T05:10:17.756Z,101708.16
2018-11-20T05:13:05.678Z,101693.70
2018-11-20T05:16:07.977Z,101696.02
2018-11-20T05:18:57.749Z,101694.00
2018-11-20T05:21:41.154Z,101694.99
2018-11-20T05:24:34.754Z,101693.01
2018-11-20T05:27:13.321Z,101692.32
2018-11-20T05:30:09.615Z,101691.00
2018-11-20T05:33:11.212Z,101698.29
2018-11-20T05:36:00.530Z,101707.30
2018-11-20T05:39:05.838Z,101714.93
2018-11-20T05:42:07.985Z,101718.92
2018-11-20T05:44:58.098Z,101717.25
2018-11-20T05:47:43.411Z,101704.28
2018-11-20T05:50:32.308Z,101706.30
2018-11-20T05:53:21.514Z,101698.33
2018-11-20T05:56:17.662Z,101703.77
2018-11-20T05:58:55.975Z,101695.63
2018-11-20T06:01:54.884Z,101696.31
2018-11-20T06:04:43.627Z,101698.33
2018-11-20T06:07:22.258Z,101700.30
2018-11-20T06:10:11.100Z,101702.78
2018-11-20T06:13:11.533Z,101704.92
2018-11-20T06:15:59.772Z,101694.28
2018-11-20T06:18:49.551Z,101698.73
2018-11-20T06:21:38.888Z,101688.28
2018-11-20T06:24:32.288Z,101697.59
2018-11-20T06:27:21.031Z,101705.56
2018-11-20T06:30:10.413Z,101698.61
2018-11-20T06:32:50.624Z,101691.61
2018-11-20T06:35:32.074Z,101692.27
2018-11-20T06:38:21.452Z,101699.27
2018-11-20T06:41:17.338Z,101699.44
2018-11-20T06:44:01.361Z,101709.59
2018-11-20T06:46:55.521Z,101722.72
2018-11-20T06:49:39.012Z,101719.55
2018-11-20T06:52:27.444Z,101722.05
2018-11-20T06:55:27.733Z,101728.50
2018-11-20T06:58:09.080Z,101729.83
2018-11-20T07:01:06.098Z,101732.19
2018-11-20T07:03:56.199Z,101728.86
2018-11-20T07:06:45.003Z,101726.38
2018-11-20T07:09:31.997Z,101724.22
2018-11-20T07:12:21.008Z,101722.89
2018-11-20T07:15:09.943Z,101720.88
2018-11-20T07:17:57.990Z,101723.53
2018-11-20T07:20:46.681Z,101728.20
2018-11-20T07:23:45.820Z,101731.84
2018-11-20T07:26:44.320Z,101749.13
2018-11-20T07:29:42.817Z,101733.02
2018-11-20T07:32:42.577Z,101728.03
2018-11-20T07:35:41.360Z,101716.55
2018-11-20T07:38:49.407Z,101712.26
2018-11-20T07:41:42.381Z,101717.92
2018-11-20T07:44:31.093Z,101708.61
2018-11-20T07:47:14.996Z,101703.77
2018-11-20T07:49:59.425Z,101696.82
2018-11-20T07:52:47.791Z,101692.16
2018-11-20T07:55:51.333Z,101691.81
2018-11-20T07:58:53.261Z,101677.19
2018-11-20T08:01:36.615Z,101687.98
2018-11-20T08:04:19.897Z,101698.09
2018-11-20T08:07:03.217Z,101685.97
2018-11-20T08:09:49.873Z,101688.63
2018-11-20T08:12:39.630Z,101687.98
2018-11-20T08:15:32.148Z,101680.34
2018-11-20T08:18:22.476Z,101680.70
2018-11-20T08:21:12.709Z,101680.02
2018-11-20T08:24:01.380Z,101679.02
2018-11-20T08:26:44.869Z,101681.69
2018-11-20T08:29:34.061Z,101684.68
2018-11-20T08:32:33.316Z,101671.70
2018-11-20T08:35:15.068Z,101666.89
2018-11-20T08:38:03.572Z,101659.73
2018-11-20T08:41:04.411Z,101656.09
2018-11-20T08:44:00.395Z,101657.25
2018-11-20T08:46:43.429Z,101656.77
2018-11-20T08:49:46.025Z,101648.27
2018-11-20T08:52:34.551Z,101640.13
2018-11-20T08:55:35.081Z,101646.77
2018-11-20T08:58:30.702Z,101653.08
2018-11-20T09:01:22.311Z,101658.40
2018-11-20T09:04:18.084Z,101653.77
2018-11-20T09:07:06.711Z,101647.59
2018-11-20T09:09:59.404Z,101646.44
2018-11-20T09:12:52.285Z,101638.97
2018-11-20T09:15:41.016Z,101636.99
2018-11-20T09:18:45.705Z,101629.50
2018-11-20T09:21:25.146Z,101636.66
2018-11-20T09:24:33.142Z,101605.56
2018-11-20T09:27:31.989Z,101629.33
2018-11-20T09:30:12.101Z,101616.88
2018-11-20T09:32:54.380Z,101616.54
2018-11-20T09:35:47.008Z,101622.38
2018-11-20T09:38:37.022Z,101618.55
2018-11-20T09:41:32.652Z,101609.39
2018-11-20T09:44:57.049Z,101607.58
2018-11-20T09:47:41.717Z,101600.11
2018-11-20T09:50:26.182Z,101591.28
2018-11-20T09:53:27.981Z,101600.25
2018-11-20T09:56:33.812Z,101586.64
2018-11-20T09:59:15.066Z,101594.11
2018-11-20T10:01:55.320Z,101597.11
2018-11-20T10:04:43.493Z,101588.45
2018-11-20T10:07:40.205Z,101585.30
2018-11-20T10:10:44.210Z,101582.30
2018-11-20T10:13:34.412Z,101588.47
2018-11-20T10:16:39.779Z,101573.16
2018-11-20T10:19:33.129Z,101578.66
2018-11-20T10:22:38.267Z,101565.70
2018-11-20T10:25:31.273Z,101572.66
2018-11-20T10:28:20.350Z,101566.02
2018-11-20T10:31:09.148Z,101557.04
2018-11-20T10:34:08.498Z,101553.05
2018-11-20T10:36:56.673Z,101546.91
2018-11-20T10:39:46.098Z,101542.90
2018-11-20T10:42:45.001Z,101529.11
2018-11-20T10:45:33.535Z,101519.96
2018-11-20T10:48:25.347Z,101525.78
2018-11-20T10:51:14.207Z,101518.43
2018-11-20T10:54:13.289Z,101522.07
2018-11-20T10:57:05.740Z,101523.06
2018-11-20T11:00:04.494Z,101515.23
2018-11-20T11:02:53.099Z,101510.73
2018-11-20T11:05:51.492Z,101505.05
2018-11-20T11:08:40.994Z,101509.52
2018-11-20T11:11:22.678Z,101503.88
2018-11-20T11:14:12.211Z,101491.18
2018-11-20T11:17:11.110Z,101494.37
2018-11-20T11:19:59.304Z,101489.55
2018-11-20T11:22:47.768Z,101485.26
2018-11-20T11:25:35.972Z,101489.69
2018-11-20T11:28:32.766Z,101479.71
2018-11-20T11:31:22.758Z,101483.36
2018-11-20T11:34:21.422Z,101478.53
2018-11-20T11:37:00.024Z,101468.39
2018-11-20T11:39:43.202Z,101474.73
2018-11-20T11:42:27.114Z,101471.46
2018-11-20T11:45:29.197Z,101471.64
2018-11-20T11:48:15.058Z,101470.47
2018-11-20T11:51:05.040Z,101464.09
2018-11-20T11:53:43.569Z,101462.43
2018-11-20T11:56:31.775Z,101473.27
2018-11-20T11:59:31.038Z,101462.98
2018-11-20T12:05:08.583Z,101458.83
2018-11-20T12:08:01.679Z,101453.46
2018-11-20T12:10:50.701Z,101449.80
2018-11-20T12:13:39.847Z,101450.14
2018-11-20T12:16:29.605Z,101445.00
2018-11-20T12:19:19.230Z,101436.16
2018-11-20T12:22:07.424Z,101430.81
2018-11-20T12:25:02.859Z,101435.66
2018-11-20T12:27:53.043Z,101421.14
2018-11-20T12:30:55.488Z,101419.81
2018-11-20T12:33:41.986Z,101416.09
2018-11-20T12:36:32.807Z,101425.49
2018-11-20T12:39:21.811Z,101409.82
2018-11-20T12:42:00.326Z,101416.48
2018-11-20T12:44:48.743Z,101412.97
2018-11-20T12:47:37.542Z,101409.98
2018-11-20T12:50:30.438Z,101410.43
2018-11-20T12:53:25.981Z,101403.80
2018-11-20T12:56:34.408Z,101405.98
2018-11-20T12:59:40.033Z,101397.55
2018-11-20T13:02:30.821Z,101399.53
2018-11-20T13:05:25.127Z,101402.38
2018-11-20T13:08:18.028Z,101400.41
2018-11-20T13:11:22.981Z,101397.90
2018-11-20T13:14:28.923Z,101389.48
2018-11-20T13:17:19.678Z,101393.98
2018-11-20T13:20:08.223Z,101382.70
2018-11-20T13:23:16.558Z,101379.19
2018-11-20T13:27:46.667Z,101378.68
2018-11-20T13:30:41.633Z,101367.09
2018-11-20T13:33:31.948Z,101373.54
2018-11-20T13:36:19.918Z,101373.02
2018-11-20T13:39:07.288Z,101366.04
2018-11-20T13:42:06.944Z,101363.91
2018-11-20T13:45:05.635Z,101366.39
2018-11-20T13:48:12.624Z,101364.76
2018-11-20T13:51:14.070Z,101370.77
2018-11-20T13:54:14.987Z,101366.93
2018-11-20T13:57:09.779Z,101369.92
2018-11-20T14:00:01.402Z,101360.77
2018-11-20T14:02:46.467Z,101365.12
2018-11-20T14:05:27.514Z,101356.84
2018-11-20T14:08:21.552Z,101348.20
2018-11-20T14:11:09.804Z,101343.39
2018-11-20T14:14:01.271Z,101345.20
2018-11-20T14:16:50.133Z,101351.34
2018-11-20T14:19:38.400Z,101340.22
2018-11-20T14:22:25.907Z,101335.56
2018-11-20T14:25:14.635Z,101338.73
2018-11-20T14:28:08.886Z,101342.56
2018-11-20T14:31:10.098Z,101326.79
2018-11-20T14:33:58.957Z,101331.93
2018-11-20T14:36:53.828Z,101333.10
2018-11-20T14:39:57.969Z,101331.93
2018-11-20T14:42:42.674Z,101335.26
2018-11-20T14:45:31.961Z,101329.11
2018-11-20T14:48:32.908Z,101335.56
2018-11-20T14:51:11.746Z,101331.59
2018-11-20T14:54:03.431Z,101329.81
2018-11-20T14:56:55.959Z,101326.98
2018-11-20T14:59:43.568Z,101319.32
2018-11-20T15:02:50.962Z,101316.84
2018-11-20T15:05:38.916Z,101312.03
2018-11-20T15:08:26.751Z,101325.98
2018-11-20T15:11:14.516Z,101320.64
2018-11-20T15:14:02.501Z,101323.00
2018-11-20T15:17:03.543Z,101313.02
2018-11-20T15:20:02.390Z,101314.02
2018-11-20T15:22:57.328Z,101317.34
2018-11-20T15:25:48.891Z,101317.86
2018-11-20T15:28:37.044Z,101323.17
2018-11-20T15:31:26.704Z,101323.66
2018-11-20T15:34:16.096Z,101318.01
2018-11-20T15:37:03.513Z,101326.52
2018-11-20T15:40:07.741Z,101325.02
2018-11-20T15:42:56.804Z,101323.69
2018-11-20T15:45:42.736Z,101317.86
2018-11-20T15:48:41.354Z,101326.69
2018-11-20T15:51:29.394Z,101328.18
2018-11-20T15:54:30.952Z,101323.70
2018-11-20T15:57:21.219Z,101330.66
2018-11-20T16:00:13.104Z,101329.84
2018-11-20T16:03:00.850Z,101342.32
2018-11-20T16:05:48.364Z,101347.48
2018-11-20T16:08:36.761Z,101342.98
2018-11-20T16:11:38.087Z,101344.31
2018-11-20T16:14:26.969Z,101360.27
2018-11-20T16:17:18.748Z,101352.29
2018-11-20T16:20:23.576Z,101360.78
2018-11-20T16:23:11.489Z,101378.88
2018-11-20T16:26:03.647Z,101375.23
2018-11-20T16:28:51.588Z,101379.39
2018-11-20T16:31:41.256Z,101374.23
2018-11-20T16:34:37.155Z,101368.28
2018-11-20T16:37:25.821Z,101364.61
2018-11-20T16:40:11.308Z,101372.60
2018-11-20T16:43:19.224Z,101382.39
2018-11-20T16:46:17.686Z,101368.59
2018-11-20T16:49:05.745Z,101378.42
2018-11-20T16:52:00.431Z,101372.59
2018-11-20T16:54:49.287Z,101379.25
2018-11-20T16:57:53.459Z,101389.23
2018-11-20T17:00:42.162Z,101376.25
2018-11-20T17:03:29.899Z,101384.39
2018-11-20T17:06:22.012Z,101393.88
2018-11-20T17:09:09.764Z,101394.56
2018-11-20T17:11:57.390Z,101408.83
2018-11-20T17:14:48.987Z,101414.98
2018-11-20T17:17:36.488Z,101409.50
2018-11-20T17:20:34.206Z,101410.16
2018-11-20T17:23:22.532Z,101411.98
2018-11-20T17:26:14.076Z,101411.84
2018-11-20T17:29:09.059Z,101397.88
2018-11-20T17:31:56.945Z,101398.85
2018-11-20T17:35:01.540Z,101389.08
2018-11-20T17:37:49.565Z,101384.41
2018-11-20T17:40:49.938Z,101396.89
2018-11-20T17:43:37.820Z,101396.91
2018-11-20T17:46:26.078Z,101389.59
2018-11-20T17:49:21.175Z,101404.38
2018-11-20T17:52:28.141Z,101392.43
2018-11-20T17:55:10.182Z,101395.91
2018-11-20T17:57:57.556Z,101390.77
2018-11-20T18:00:37.704Z,101386.63
2018-11-20T18:03:27.029Z,101398.23
2018-11-20T18:06:14.409Z,101398.89
2018-11-20T18:09:03.355Z,101399.73
2018-11-20T18:11:58.141Z,101390.27
2018-11-20T18:14:39.722Z,101395.59
2018-11-20T18:17:27.535Z,101388.12
2018-11-20T18:20:31.733Z,101390.77
2018-11-20T18:23:20.734Z,101386.97
2018-11-20T18:26:13.293Z,101392.94
2018-11-20T18:29:01.433Z,101402.58
2018-11-20T18:32:05.279Z,101402.06
2018-11-20T18:34:53.259Z,101408.53
2018-11-20T18:37:55.110Z,101402.07
2018-11-20T18:40:44.511Z,101398.27
2018-11-20T18:43:32.622Z,101401.56
2018-11-20T18:46:25.018Z,101388.29
2018-11-20T18:49:16.459Z,101393.44
2018-11-20T18:52:05.152Z,101403.08
2018-11-20T18:54:58.065Z,101389.28
2018-11-20T18:57:49.614Z,101398.44
2018-11-20T19:00:38.324Z,101401.23
2018-11-20T19:03:30.633Z,101399.56
2018-11-20T19:06:20.459Z,101414.84
2018-11-20T19:09:18.870Z,101421.49
2018-11-20T19:12:06.390Z,101428.81
2018-11-20T19:14:54.939Z,101440.59
2018-11-20T19:17:47.945Z,101432.12
2018-11-20T19:20:36.829Z,101438.08
2018-11-20T19:23:28.703Z,101434.94
2018-11-20T19:26:22.582Z,101434.43
2018-11-20T19:29:30.900Z,101443.08
2018-11-20T19:32:13.617Z,101447.20
2018-11-20T19:35:05.077Z,101451.86
2018-11-20T19:38:03.039Z,101442.23
2018-11-20T19:40:55.141Z,101450.70
2018-11-20T19:43:47.021Z,101462.14
2018-11-20T19:46:36.244Z,101454.34
2018-11-20T19:49:14.844Z,101464.63
2018-11-20T19:52:02.869Z,101469.12
2018-11-20T19:54:51.061Z,101471.27
2018-11-20T19:57:43.256Z,101469.94
2018-11-20T20:00:32.346Z,101470.63
2018-11-20T20:03:24.575Z,101455.16
2018-11-20T20:06:16.697Z,101471.27
2018-11-20T20:09:20.422Z,101469.12
2018-11-20T20:12:27.500Z,101464.80
2018-11-20T20:15:20.419Z,101470.63
2018-11-20T20:18:08.635Z,101463.00
2018-11-20T20:21:10.536Z,101461.63
2018-11-20T20:24:07.305Z,101456.66
2018-11-20T20:26:52.873Z,101463.13
2018-11-20T20:29:40.703Z,101455.51
2018-11-20T20:32:20.142Z,101453.36
2018-11-20T20:35:26.975Z,101456.66
2018-11-20T20:38:16.687Z,101456.33
2018-11-20T20:41:05.594Z,101458.81
2018-11-20T20:43:58.073Z,101462.31
2018-11-20T20:46:55.119Z,101470.28
2018-11-20T20:49:51.385Z,101461.50
2018-11-20T20:52:39.026Z,101453.36
2018-11-20T20:55:26.835Z,101458.67
2018-11-20T20:58:14.501Z,101460.65
2018-11-20T21:01:06.486Z,101462.31
2018-11-20T21:04:02.726Z,101473.41
2018-11-20T21:06:45.857Z,101480.05
2018-11-20T21:09:33.924Z,101486.89
2018-11-20T21:12:20.280Z,101487.87
2018-11-20T21:15:20.977Z,101494.86
2018-11-20T21:18:10.940Z,101489.22
2018-11-20T21:21:05.897Z,101493.70
2018-11-20T21:23:55.546Z,101500.18
2018-11-20T21:26:40.821Z,101497.34
2018-11-20T21:29:26.746Z,101504.81
2018-11-20T21:32:12.628Z,101508.63
2018-11-20T21:34:59.823Z,101511.27
2018-11-20T21:37:49.004Z,101507.46
2018-11-20T21:40:37.500Z,101509.13
2018-11-20T21:43:27.356Z,101509.48
2018-11-20T21:46:16.099Z,101513.80
2018-11-20T21:49:12.193Z,101515.78
2018-11-20T21:52:16.367Z,101518.78
2018-11-20T21:54:54.283Z,101525.75
2018-11-20T21:57:52.839Z,101532.39
2018-11-20T22:00:55.823Z,101538.52
2018-11-20T22:03:50.502Z,101536.03
2018-11-20T22:06:41.578Z,101542.33
2018-11-20T22:09:33.406Z,101549.97
2018-11-20T22:12:39.121Z,101547.66
2018-11-20T22:15:43.712Z,101552.63
2018-11-20T22:18:31.566Z,101542.34
2018-11-20T22:21:29.375Z,101546.83
2018-11-20T22:24:17.028Z,101551.30
2018-11-20T22:27:08.833Z,101546.67
2018-11-20T22:30:01.004Z,101543.03
2018-11-20T22:32:52.557Z,101543.84
2018-11-20T22:35:47.500Z,101545.98
2018-11-20T22:38:41.344Z,101552.50
2018-11-20T22:41:29.046Z,101549.49
2018-11-20T22:44:23.145Z,101555.45
2018-11-20T22:47:12.732Z,101564.28
2018-11-20T22:49:59.643Z,101563.12
2018-11-20T22:52:52.849Z,101565.95
2018-11-20T22:55:40.497Z,101564.28
2018-11-20T22:58:35.727Z,101564.28
2018-11-20T23:01:27.481Z,101557.12
2018-11-20T23:04:14.767Z,101564.11
2018-11-20T23:07:10.213Z,101560.94
2018-11-20T23:09:40.838Z,101557.98
2018-11-20T23:12:17.404Z,101557.30
2018-11-20T23:14:49.080Z,101554.16
2018-11-20T23:17:24.967Z,101554.98
2018-11-20T23:19:55.241Z,101546.67
2018-11-20T23:22:28.266Z,101545.00
2018-11-20T23:24:59.193Z,101558.63
2018-11-20T23:27:29.307Z,101559.78
2018-11-20T23:29:59.602Z,101561.28
2018-11-20T23:32:29.513Z,101563.77
2018-11-20T23:35:00.444Z,101566.59
2018-11-20T23:37:30.257Z,101559.95
2018-11-20T23:40:00.499Z,101555.28
2018-11-20T23:42:32.219Z,101551.81
2018-11-20T23:45:02.087Z,101552.66
2018-11-20T23:47:32.174Z,101547.35
2018-11-20T23:50:02.841Z,101546.67
2018-11-20T23:52:32.891Z,101548.00
2018-11-20T23:55:02.818Z,101542.69
2018-11-20T23:57:32.682Z,101541.52
